sensor_id;sensor_type;location;lat;lon;timestamp;pressure;altitude;pressure_sealevel;temperature;humidity
51099;BME280;37146;48.210;16.234;2023-07-08T00:01:52;99304.78;;;14.53;95.92
51099;BME280;37146;48.210;16.234;2023-07-08T00:04:18;99307.47;;;14.53;95.09
51099;BME280;37146;48.210;16.234;2023-07-08T00:06:43;99308.97;;;14.57;96.10
51099;BME280;37146;48.210;16.234;2023-07-08T00:09:11;99316.78;;;14.47;95.90
51099;BME280;37146;48.210;16.234;2023-07-08T00:11:37;99316.50;;;14.37;96.70
51099;BME280;37146;48.210;16.234;2023-07-08T00:14:02;99314.75;;;14.36;97.07
51099;BME280;37146;48.210;16.234;2023-07-08T00:16:27;99317.63;;;14.48;96.24
51099;BME280;37146;48.210;16.234;2023-07-08T00:18:52;99317.06;;;14.28;96.18
51099;BME280;37146;48.210;16.234;2023-07-08T00:21:18;99317.72;;;14.32;97.19
51099;BME280;37146;48.210;16.234;2023-07-08T00:23:46;99318.22;;;14.38;96.16
51099;BME280;37146;48.210;16.234;2023-07-08T00:26:23;99322.63;;;14.25;96.70
51099;BME280;37146;48.210;16.234;2023-07-08T00:28:49;99322.06;;;14.34;97.00
51099;BME280;37146;48.210;16.234;2023-07-08T00:31:15;99313.38;;;14.00;98.12
51099;BME280;37146;48.210;16.234;2023-07-08T00:33:40;99316.09;;;14.15;97.89
51099;BME280;37146;48.210;16.234;2023-07-08T00:36:11;99313.00;;;14.06;97.41
51099;BME280;37146;48.210;16.234;2023-07-08T00:38:37;99317.44;;;14.07;97.36
51099;BME280;37146;48.210;16.234;2023-07-08T00:45:59;99306.31;;;13.69;100.00
51099;BME280;37146;48.210;16.234;2023-07-08T00:48:31;99297.25;;;14.00;99.13
51099;BME280;37146;48.210;16.234;2023-07-08T00:51:00;99294.97;;;14.09;98.29
51099;BME280;37146;48.210;16.234;2023-07-08T00:53:32;99291.50;;;14.06;98.34
51099;BME280;37146;48.210;16.234;2023-07-08T00:56:44;99284.19;;;13.94;98.39
51099;BME280;37146;48.210;16.234;2023-07-08T00:58:45;99280.50;;;13.81;98.88
51099;BME280;37146;48.210;16.234;2023-07-08T01:01:11;99287.13;;;13.75;99.74
51099;BME280;37146;48.210;16.234;2023-07-08T01:03:43;99300.34;;;13.64;98.87
51099;BME280;37146;48.210;16.234;2023-07-08T01:06:10;99293.38;;;13.75;99.93
51099;BME280;37146;48.210;16.234;2023-07-08T01:08:35;99287.13;;;13.75;98.79
51099;BME280;37146;48.210;16.234;2023-07-08T01:11:01;99297.47;;;13.67;100.00
51099;BME280;37146;48.210;16.234;2023-07-08T01:13:29;99295.91;;;13.48;100.00
51099;BME280;37146;48.210;16.234;2023-07-08T01:15:55;99292.47;;;13.60;100.00
51099;BME280;37146;48.210;16.234;2023-07-08T01:18:20;99293.38;;;13.75;100.00
51099;BME280;37146;48.210;16.234;2023-07-08T01:20:46;99286.56;;;13.70;99.42
51099;BME280;37146;48.210;16.234;2023-07-08T01:23:12;99294.78;;;13.67;99.70
51099;BME280;37146;48.210;16.234;2023-07-08T01:25:38;99298.44;;;13.66;100.00
51099;BME280;37146;48.210;16.234;2023-07-08T01:28:03;99280.00;;;13.59;98.87
51099;BME280;37146;48.210;16.234;2023-07-08T01:30:29;99276.47;;;13.73;99.03
51099;BME280;37146;48.210;16.234;2023-07-08T01:32:55;99275.88;;;13.68;98.49
51099;BME280;37146;48.210;16.234;2023-07-08T01:35:21;99289.56;;;13.49;99.36
51099;BME280;37146;48.210;16.234;2023-07-08T01:37:53;99275.00;;;13.37;100.00
51099;BME280;37146;48.210;16.234;2023-07-08T01:42:48;99273.56;;;13.15;100.00
51099;BME280;37146;48.210;16.234;2023-07-08T01:45:14;99273.31;;;13.04;100.00
51099;BME280;37146;48.210;16.234;2023-07-08T01:47:44;99269.59;;;13.23;100.00
51099;BME280;37146;48.210;16.234;2023-07-08T01:50:11;99270.44;;;13.39;100.00
51099;BME280;37146;48.210;16.234;2023-07-08T01:52:36;99266.53;;;13.29;100.00
51099;BME280;37146;48.210;16.234;2023-07-08T01:55:02;99269.94;;;13.17;100.00
51099;BME280;37146;48.210;16.234;2023-07-08T01:57:27;99271.28;;;13.24;100.00
51099;BME280;37146;48.210;16.234;2023-07-08T01:59:52;99263.00;;;13.12;100.00
51099;BME280;37146;48.210;16.234;2023-07-08T02:02:18;99272.53;;;13.02;100.00
51099;BME280;37146;48.210;16.234;2023-07-08T02:04:43;99263.63;;;13.02;100.00
51099;BME280;37146;48.210;16.234;2023-07-08T02:07:08;99269.84;;;13.02;100.00
51099;BME280;37146;48.210;16.234;2023-07-08T02:09:33;99271.53;;;13.05;100.00
51099;BME280;37146;48.210;16.234;2023-07-08T02:11:58;99258.69;;;12.94;100.00
51099;BME280;37146;48.210;16.234;2023-07-08T02:14:24;99256.28;;;12.89;100.00
51099;BME280;37146;48.210;16.234;2023-07-08T02:16:49;99261.81;;;13.02;100.00
51099;BME280;37146;48.210;16.234;2023-07-08T02:19:14;99250.63;;;13.10;100.00
51099;BME280;37146;48.210;16.234;2023-07-08T02:21:39;99243.00;;;13.02;100.00
51099;BME280;37146;48.210;16.234;2023-07-08T02:24:05;99247.38;;;13.19;100.00
51099;BME280;37146;48.210;16.234;2023-07-08T02:26:30;99247.25;;;13.06;100.00
51099;BME280;37146;48.210;16.234;2023-07-08T02:28:58;99239.94;;;12.78;100.00
51099;BME280;37146;48.210;16.234;2023-07-08T02:31:24;99243.50;;;12.78;100.00
51099;BME280;37146;48.210;16.234;2023-07-08T02:33:50;99231.72;;;12.65;100.00
51099;BME280;37146;48.210;16.234;2023-07-08T02:36:15;99239.06;;;12.77;100.00
51099;BME280;37146;48.210;16.234;2023-07-08T02:38:40;99238.81;;;12.66;100.00
51099;BME280;37146;48.210;16.234;2023-07-08T02:41:05;99244.19;;;12.66;100.00
51099;BME280;37146;48.210;16.234;2023-07-08T02:43:31;99242.25;;;12.68;100.00
51099;BME280;37146;48.210;16.234;2023-07-08T02:45:56;99245.13;;;12.65;100.00
51099;BME280;37146;48.210;16.234;2023-07-08T02:48:21;99236.03;;;12.67;100.00
51099;BME280;37146;48.210;16.234;2023-07-08T02:50:46;99237.25;;;12.62;100.00
51099;BME280;37146;48.210;16.234;2023-07-08T02:53:12;99236.91;;;12.52;100.00
51099;BME280;37146;48.210;16.234;2023-07-08T02:55:40;99242.03;;;12.73;100.00
51099;BME280;37146;48.210;16.234;2023-07-08T02:58:07;99244.72;;;12.57;100.00
51099;BME280;37146;48.210;16.234;2023-07-08T03:00:32;99243.97;;;12.37;100.00
51099;BME280;37146;48.210;16.234;2023-07-08T03:02:58;99253.50;;;12.43;100.00
51099;BME280;37146;48.210;16.234;2023-07-08T03:05:24;99248.66;;;12.49;100.00
51099;BME280;37146;48.210;16.234;2023-07-08T03:07:50;99251.78;;;12.58;100.00
51099;BME280;37146;48.210;16.234;2023-07-08T03:10:15;99250.25;;;12.53;100.00
51099;BME280;37146;48.210;16.234;2023-07-08T03:12:41;99247.97;;;12.46;100.00
51099;BME280;37146;48.210;16.234;2023-07-08T03:15:06;99253.00;;;12.52;100.00
51099;BME280;37146;48.210;16.234;2023-07-08T03:17:31;99255.41;;;12.41;100.00
51099;BME280;37146;48.210;16.234;2023-07-08T03:19:56;99252.97;;;12.36;100.00
51099;BME280;37146;48.210;16.234;2023-07-08T03:22:22;99255.34;;;12.42;100.00
51099;BME280;37146;48.210;16.234;2023-07-08T03:24:47;99248.25;;;12.41;100.00
51099;BME280;37146;48.210;16.234;2023-07-08T03:27:13;99252.31;;;12.48;100.00
51099;BME280;37146;48.210;16.234;2023-07-08T03:29:38;99258.59;;;12.31;100.00
51099;BME280;37146;48.210;16.234;2023-07-08T03:32:04;99269.69;;;12.25;100.00
51099;BME280;37146;48.210;16.234;2023-07-08T03:34:29;99267.19;;;12.38;100.00
51099;BME280;37146;48.210;16.234;2023-07-08T03:36:54;99266.91;;;12.43;100.00
51099;BME280;37146;48.210;16.234;2023-07-08T03:39:21;99269.59;;;12.43;100.00
51099;BME280;37146;48.210;16.234;2023-07-08T03:41:47;99273.75;;;12.48;100.00
51099;BME280;37146;48.210;16.234;2023-07-08T03:44:13;99277.22;;;12.34;100.00
51099;BME280;37146;48.210;16.234;2023-07-08T03:46:38;99274.38;;;12.37;100.00
51099;BME280;37146;48.210;16.234;2023-07-08T03:49:04;99272.91;;;12.48;100.00
51099;BME280;37146;48.210;16.234;2023-07-08T03:51:30;99271.44;;;12.42;100.00
51099;BME280;37146;48.210;16.234;2023-07-08T03:53:56;99274.03;;;12.44;100.00
51099;BME280;37146;48.210;16.234;2023-07-08T03:56:22;99274.97;;;12.59;100.00
51099;BME280;37146;48.210;16.234;2023-07-08T03:58:47;99280.34;;;12.59;100.00
51099;BME280;37146;48.210;16.234;2023-07-08T04:01:16;99275.94;;;12.08;100.00
51099;BME280;37146;48.210;16.234;2023-07-08T04:03:42;99278.81;;;12.55;100.00
51099;BME280;37146;48.210;16.234;2023-07-08T04:06:07;99279.66;;;12.71;100.00
51099;BME280;37146;48.210;16.234;2023-07-08T04:08:33;99282.44;;;12.86;100.00
51099;BME280;37146;48.210;16.234;2023-07-08T04:10:58;99280.97;;;12.80;100.00
51099;BME280;37146;48.210;16.234;2023-07-08T04:13:23;99283.03;;;12.59;100.00
51099;BME280;37146;48.210;16.234;2023-07-08T04:15:51;99283.75;;;12.78;100.00
51099;BME280;37146;48.210;16.234;2023-07-08T04:18:19;99278.13;;;12.83;100.00
51099;BME280;37146;48.210;16.234;2023-07-08T04:20:44;99288.41;;;12.75;100.00
51099;BME280;37146;48.210;16.234;2023-07-08T04:23:10;99287.66;;;12.73;100.00
51099;BME280;37146;48.210;16.234;2023-07-08T04:25:35;99292.47;;;12.98;100.00
51099;BME280;37146;48.210;16.234;2023-07-08T04:28:00;99297.22;;;12.93;100.00
51099;BME280;37146;48.210;16.234;2023-07-08T04:30:25;99285.28;;;12.82;100.00
51099;BME280;37146;48.210;16.234;2023-07-08T04:32:51;99285.69;;;13.07;100.00
51099;BME280;37146;48.210;16.234;2023-07-08T04:35:17;99284.06;;;12.88;100.00
51099;BME280;37146;48.210;16.234;2023-07-08T04:37:42;99279.84;;;13.00;100.00
51099;BME280;37146;48.210;16.234;2023-07-08T04:40:14;99281.69;;;13.30;100.00
51099;BME280;37146;48.210;16.234;2023-07-08T04:42:40;99284.66;;;13.25;100.00
51099;BME280;37146;48.210;16.234;2023-07-08T04:45:07;99280.81;;;13.29;100.00
51099;BME280;37146;48.210;16.234;2023-07-08T04:47:32;99285.22;;;13.47;100.00
51099;BME280;37146;48.210;16.234;2023-07-08T04:49:59;99283.22;;;13.34;100.00
51099;BME280;37146;48.210;16.234;2023-07-08T04:52:24;99289.41;;;13.67;100.00
51099;BME280;37146;48.210;16.234;2023-07-08T04:54:49;99281.44;;;13.65;100.00
51099;BME280;37146;48.210;16.234;2023-07-08T04:57:14;99272.66;;;13.78;99.93
51099;BME280;37146;48.210;16.234;2023-07-08T04:59:41;99277.53;;;13.71;99.89
51099;BME280;37146;48.210;16.234;2023-07-08T05:02:07;99285.66;;;13.55;99.49
51099;BME280;37146;48.210;16.234;2023-07-08T05:04:32;99284.34;;;13.91;99.69
51099;BME280;37146;48.210;16.234;2023-07-08T05:06:58;99280.16;;;13.87;99.22
51099;BME280;37146;48.210;16.234;2023-07-08T05:09:23;99279.09;;;13.89;98.06
51099;BME280;37146;48.210;16.234;2023-07-08T05:11:50;99275.66;;;14.16;97.09
51099;BME280;37146;48.210;16.234;2023-07-08T05:14:16;99282.66;;;14.19;97.13
51099;BME280;37146;48.210;16.234;2023-07-08T05:16:41;99282.75;;;14.17;98.34
51099;BME280;37146;48.210;16.234;2023-07-08T05:19:06;99285.44;;;14.32;95.41
51099;BME280;37146;48.210;16.234;2023-07-08T05:21:32;99277.06;;;14.65;93.79
51099;BME280;37146;48.210;16.234;2023-07-08T05:24:02;99276.25;;;14.92;91.94
51099;BME280;37146;48.210;16.234;2023-07-08T05:26:28;99267.69;;;15.00;91.24
51099;BME280;37146;48.210;16.234;2023-07-08T05:28:53;99268.13;;;15.07;91.19
51099;BME280;37146;48.210;16.234;2023-07-08T05:31:19;99271.53;;;15.23;91.21
51099;BME280;37146;48.210;16.234;2023-07-08T05:33:44;99272.63;;;15.34;91.48
51099;BME280;37146;48.210;16.234;2023-07-08T05:36:09;99276.53;;;15.42;91.50
51099;BME280;37146;48.210;16.234;2023-07-08T05:38:34;99274.22;;;15.64;92.16
51099;BME280;37146;48.210;16.234;2023-07-08T05:40:59;99268.19;;;15.73;90.20
51099;BME280;37146;48.210;16.234;2023-07-08T05:43:25;99276.44;;;15.97;88.87
51099;BME280;37146;48.210;16.234;2023-07-08T05:45:50;99273.97;;;16.07;88.58
51099;BME280;37146;48.210;16.234;2023-07-08T05:48:16;99265.41;;;16.26;87.83
51099;BME280;37146;48.210;16.234;2023-07-08T05:50:41;99273.84;;;16.34;84.90
51099;BME280;37146;48.210;16.234;2023-07-08T05:53:09;99262.34;;;16.57;83.49
51099;BME280;37146;48.210;16.234;2023-07-08T05:55:35;99266.19;;;16.78;83.05
51099;BME280;37146;48.210;16.234;2023-07-08T05:58:01;99268.94;;;16.90;82.46
51099;BME280;37146;48.210;16.234;2023-07-08T06:00:32;99267.63;;;17.08;81.28
51099;BME280;37146;48.210;16.234;2023-07-08T06:02:59;99272.75;;;17.24;81.36
51099;BME280;37146;48.210;16.234;2023-07-08T06:05:24;99259.72;;;17.29;81.64
51099;BME280;37146;48.210;16.234;2023-07-08T06:07:50;99264.84;;;17.45;81.29
51099;BME280;37146;48.210;16.234;2023-07-08T06:10:15;99267.81;;;17.54;79.77
51099;BME280;37146;48.210;16.234;2023-07-08T06:12:40;99266.47;;;17.59;79.88
51099;BME280;37146;48.210;16.234;2023-07-08T06:15:06;99263.19;;;17.67;79.61
51099;BME280;37146;48.210;16.234;2023-07-08T06:17:31;99259.53;;;17.91;79.32
51099;BME280;37146;48.210;16.234;2023-07-08T06:19:56;99250.38;;;18.50;70.26
51099;BME280;37146;48.210;16.234;2023-07-08T06:22:22;99250.94;;;18.88;67.12
51099;BME280;37146;48.210;16.234;2023-07-08T06:24:47;99258.97;;;19.34;64.16
51099;BME280;37146;48.210;16.234;2023-07-08T06:27:13;99257.19;;;19.44;62.10
51099;BME280;37146;48.210;16.234;2023-07-08T06:29:38;99253.63;;;19.43;62.94
51099;BME280;37146;48.210;16.234;2023-07-08T06:32:03;99252.75;;;19.85;59.68
51099;BME280;37146;48.210;16.234;2023-07-08T06:34:29;99259.47;;;20.02;58.07
51099;BME280;37146;48.210;16.234;2023-07-08T06:36:54;99257.44;;;19.95;58.36
51099;BME280;37146;48.210;16.234;2023-07-08T06:39:19;99260.72;;;20.19;58.92
51099;BME280;37146;48.210;16.234;2023-07-08T06:41:45;99260.91;;;20.28;57.79
51099;BME280;37146;48.210;16.234;2023-07-08T06:44:10;99248.66;;;20.43;59.55
51099;BME280;37146;48.210;16.234;2023-07-08T06:46:36;99247.31;;;20.59;58.01
51099;BME280;37146;48.210;16.234;2023-07-08T06:49:01;99241.31;;;20.65;59.54
51099;BME280;37146;48.210;16.234;2023-07-08T06:51:26;99238.31;;;20.68;58.49
51099;BME280;37146;48.210;16.234;2023-07-08T06:53:52;99232.22;;;20.85;58.88
51099;BME280;37146;48.210;16.234;2023-07-08T06:56:17;99241.84;;;20.90;59.59
51099;BME280;37146;48.210;16.234;2023-07-08T06:58:43;99244.41;;;20.91;58.33
51099;BME280;37146;48.210;16.234;2023-07-08T07:01:08;99245.28;;;21.11;58.19
51099;BME280;37146;48.210;16.234;2023-07-08T07:03:33;99234.16;;;21.14;58.10
51099;BME280;37146;48.210;16.234;2023-07-08T07:05:58;99241.44;;;21.04;56.69
51099;BME280;37146;48.210;16.234;2023-07-08T07:08:23;99235.28;;;21.02;56.91
51099;BME280;37146;48.210;16.234;2023-07-08T07:10:49;99236.31;;;21.30;56.14
51099;BME280;37146;48.210;16.234;2023-07-08T07:13:14;99232.84;;;21.48;55.61
51099;BME280;37146;48.210;16.234;2023-07-08T07:15:39;99237.72;;;21.64;54.44
51099;BME280;37146;48.210;16.234;2023-07-08T07:18:04;99236.16;;;21.71;55.16
51099;BME280;37146;48.210;16.234;2023-07-08T07:20:30;99239.88;;;21.70;54.71
51099;BME280;37146;48.210;16.234;2023-07-08T07:22:55;99239.16;;;21.68;53.68
51099;BME280;37146;48.210;16.234;2023-07-08T07:25:21;99233.13;;;21.84;54.36
51099;BME280;37146;48.210;16.234;2023-07-08T07:27:47;99242.13;;;21.85;54.63
51099;BME280;37146;48.210;16.234;2023-07-08T07:30:12;99244.38;;;22.09;53.69
51099;BME280;37146;48.210;16.234;2023-07-08T07:32:40;99243.34;;;22.20;55.20
51099;BME280;37146;48.210;16.234;2023-07-08T07:35:06;99241.06;;;22.15;53.20
51099;BME280;37146;48.210;16.234;2023-07-08T07:37:31;99244.72;;;22.44;51.70
51099;BME280;37146;48.210;16.234;2023-07-08T07:39:56;99244.44;;;22.27;52.55
51099;BME280;37146;48.210;16.234;2023-07-08T07:42:21;99239.44;;;22.32;52.39
51099;BME280;37146;48.210;16.234;2023-07-08T07:44:47;99235.88;;;22.60;52.95
51099;BME280;37146;48.210;16.234;2023-07-08T07:47:12;99244.28;;;22.94;51.51
51099;BME280;37146;48.210;16.234;2023-07-08T07:49:38;99237.50;;;22.80;50.03
51099;BME280;37146;48.210;16.234;2023-07-08T07:52:03;99241.69;;;23.03;51.05
51099;BME280;37146;48.210;16.234;2023-07-08T07:54:29;99230.03;;;22.82;51.97
51099;BME280;37146;48.210;16.234;2023-07-08T07:56:54;99234.06;;;23.24;50.31
51099;BME280;37146;48.210;16.234;2023-07-08T07:59:19;99239.91;;;23.29;50.74
51099;BME280;37146;48.210;16.234;2023-07-08T08:01:45;99242.34;;;23.33;50.60
51099;BME280;37146;48.210;16.234;2023-07-08T08:04:10;99236.81;;;22.96;50.96
51099;BME280;37146;48.210;16.234;2023-07-08T08:06:36;99239.38;;;23.44;50.79
51099;BME280;37146;48.210;16.234;2023-07-08T08:09:02;99238.22;;;23.73;50.11
51099;BME280;37146;48.210;16.234;2023-07-08T08:11:27;99238.50;;;23.88;51.68
51099;BME280;37146;48.210;16.234;2023-07-08T08:13:52;99229.41;;;23.79;49.53
51099;BME280;37146;48.210;16.234;2023-07-08T08:16:19;99233.09;;;23.70;49.19
51099;BME280;37146;48.210;16.234;2023-07-08T08:18:44;99234.13;;;24.13;49.43
51099;BME280;37146;48.210;16.234;2023-07-08T08:21:09;99238.47;;;24.32;49.95
51099;BME280;37146;48.210;16.234;2023-07-08T08:23:34;99240.75;;;23.92;48.61
51099;BME280;37146;48.210;16.234;2023-07-08T08:25:59;99236.00;;;23.94;49.20
51099;BME280;37146;48.210;16.234;2023-07-08T08:28:25;99229.41;;;23.97;49.04
51099;BME280;37146;48.210;16.234;2023-07-08T08:30:50;99234.75;;;24.07;47.92
51099;BME280;37146;48.210;16.234;2023-07-08T08:33:16;99229.53;;;24.22;46.79
51099;BME280;37146;48.210;16.234;2023-07-08T08:35:41;99233.00;;;24.67;48.53
51099;BME280;37146;48.210;16.234;2023-07-08T08:38:07;99232.16;;;24.32;48.19
51099;BME280;37146;48.210;16.234;2023-07-08T08:40:32;99236.38;;;24.61;48.49
51099;BME280;37146;48.210;16.234;2023-07-08T08:43:05;99232.06;;;24.84;47.73
51099;BME280;37146;48.210;16.234;2023-07-08T08:45:34;99232.22;;;24.75;47.69
51099;BME280;37146;48.210;16.234;2023-07-08T08:48:02;99234.59;;;24.69;48.81
51099;BME280;37146;48.210;16.234;2023-07-08T08:52:53;99233.59;;;25.55;49.03
51099;BME280;37146;48.210;16.234;2023-07-08T08:55:20;99230.31;;;25.68;48.70
51099;BME280;37146;48.210;16.234;2023-07-08T08:57:48;99227.03;;;25.81;48.78
51099;BME280;37146;48.210;16.234;2023-07-08T09:00:16;99221.13;;;24.84;47.26
51099;BME280;37146;48.210;16.234;2023-07-08T09:02:53;99226.69;;;25.34;48.06
51099;BME280;37146;48.210;16.234;2023-07-08T09:05:22;99220.56;;;25.49;46.80
51099;BME280;37146;48.210;16.234;2023-07-08T09:10:44;99207.88;;;25.39;44.62
51099;BME280;37146;48.210;16.234;2023-07-08T09:13:25;99213.66;;;26.02;46.09
51099;BME280;37146;48.210;16.234;2023-07-08T09:15:57;99203.47;;;25.55;44.94
51099;BME280;37146;48.210;16.234;2023-07-08T09:18:27;99214.41;;;25.46;45.16
51099;BME280;37146;48.210;16.234;2023-07-08T09:20:55;99210.97;;;25.53;44.11
51099;BME280;37146;48.210;16.234;2023-07-08T09:23:22;99210.13;;;25.44;44.64
51099;BME280;37146;48.210;16.234;2023-07-08T09:25:54;99211.44;;;25.31;44.29
51099;BME280;37146;48.210;16.234;2023-07-08T09:28:21;99203.94;;;25.67;45.32
51099;BME280;37146;48.210;16.234;2023-07-08T09:30:59;99205.50;;;25.61;44.98
51099;BME280;37146;48.210;16.234;2023-07-08T09:33:25;99208.19;;;26.19;45.35
51099;BME280;37146;48.210;16.234;2023-07-08T09:35:50;99209.53;;;26.23;45.12
51099;BME280;37146;48.210;16.234;2023-07-08T09:38:16;99205.09;;;26.05;43.96
51099;BME280;37146;48.210;16.234;2023-07-08T09:40:45;99203.84;;;26.33;44.53
51099;BME280;37146;48.210;16.234;2023-07-08T09:43:24;99189.88;;;26.51;43.35
51099;BME280;37146;48.210;16.234;2023-07-08T09:45:50;99199.06;;;26.27;43.70
51099;BME280;37146;48.210;16.234;2023-07-08T09:48:24;99198.44;;;26.56;44.35
51099;BME280;37146;48.210;16.234;2023-07-08T09:50:51;99191.22;;;25.99;43.20
51099;BME280;37146;48.210;16.234;2023-07-08T09:53:16;99190.84;;;26.66;44.40
51099;BME280;37146;48.210;16.234;2023-07-08T09:55:42;99183.78;;;27.04;43.99
51099;BME280;37146;48.210;16.234;2023-07-08T09:58:08;99182.25;;;26.69;43.97
51099;BME280;37146;48.210;16.234;2023-07-08T10:00:40;99183.84;;;26.07;43.51
51099;BME280;37146;48.210;16.234;2023-07-08T10:03:26;99183.59;;;26.74;43.52
51099;BME280;37146;48.210;16.234;2023-07-08T10:05:52;99173.41;;;26.91;44.54
51099;BME280;37146;48.210;16.234;2023-07-08T10:08:22;99183.63;;;27.05;42.07
51099;BME280;37146;48.210;16.234;2023-07-08T10:11:11;99184.44;;;26.74;42.42
51099;BME280;37146;48.210;16.234;2023-07-08T10:13:35;99178.31;;;26.64;42.32
51099;BME280;37146;48.210;16.234;2023-07-08T10:16:23;99177.41;;;26.80;42.82
51099;BME280;37146;48.210;16.234;2023-07-08T10:18:49;99171.94;;;26.80;43.22
51099;BME280;37146;48.210;16.234;2023-07-08T10:26:42;99172.22;;;27.16;42.83
51099;BME280;37146;48.210;16.234;2023-07-08T10:31:45;99165.09;;;27.69;42.54
51099;BME280;37146;48.210;16.234;2023-07-08T10:36:45;99162.66;;;27.74;42.28
51099;BME280;37146;48.210;16.234;2023-07-08T10:47:03;99148.56;;;27.54;40.06
51099;BME280;37146;48.210;16.234;2023-07-08T10:59:23;99152.91;;;27.86;37.49
51099;BME280;37146;48.210;16.234;2023-07-08T11:04:40;99146.09;;;28.27;38.86
51099;BME280;37146;48.210;16.234;2023-07-08T11:12:04;99144.19;;;28.28;36.36
51099;BME280;37146;48.210;16.234;2023-07-08T11:14:40;99140.88;;;28.32;37.36
51099;BME280;37146;48.210;16.234;2023-07-08T11:17:15;99133.66;;;28.68;36.91
51099;BME280;37146;48.210;16.234;2023-07-08T11:19:48;99134.25;;;29.00;37.91
51099;BME280;37146;48.210;16.234;2023-07-08T11:22:16;99134.91;;;28.80;34.57
51099;BME280;37146;48.210;16.234;2023-07-08T11:24:44;99134.66;;;28.60;34.81
51099;BME280;37146;48.210;16.234;2023-07-08T11:27:30;99136.53;;;28.75;33.81
51099;BME280;37146;48.210;16.234;2023-07-08T11:30:13;99140.53;;;29.59;33.70
51099;BME280;37146;48.210;16.234;2023-07-08T11:32:40;99144.94;;;29.31;33.38
51099;BME280;37146;48.210;16.234;2023-07-08T11:35:12;99141.63;;;29.93;33.67
51099;BME280;37146;48.210;16.234;2023-07-08T11:37:41;99137.44;;;30.94;33.88
51099;BME280;37146;48.210;16.234;2023-07-08T11:40:20;99137.53;;;30.17;33.23
51099;BME280;37146;48.210;16.234;2023-07-08T11:42:53;99142.97;;;30.94;32.54
51099;BME280;37146;48.210;16.234;2023-07-08T11:45:35;99130.72;;;30.55;34.27
51099;BME280;37146;48.210;16.234;2023-07-08T11:50:30;99136.66;;;32.60;30.77
51099;BME280;37146;48.210;16.234;2023-07-08T11:53:01;99137.59;;;34.01;30.84
51099;BME280;37146;48.210;16.234;2023-07-08T11:55:35;99122.28;;;30.63;32.90
51099;BME280;37146;48.210;16.234;2023-07-08T11:58:00;99109.34;;;30.22;34.93
51099;BME280;37146;48.210;16.234;2023-07-08T12:00:26;99121.53;;;29.99;31.73
51099;BME280;37146;48.210;16.234;2023-07-08T12:02:58;99101.50;;;30.19;33.59
51099;BME280;37146;48.210;16.234;2023-07-08T12:07:55;99108.03;;;29.48;33.21
51099;BME280;37146;48.210;16.234;2023-07-08T12:10:26;99103.00;;;29.58;32.89
51099;BME280;37146;48.210;16.234;2023-07-08T12:12:52;99107.22;;;29.54;33.02
51099;BME280;37146;48.210;16.234;2023-07-08T12:15:22;99109.41;;;29.93;33.05
51099;BME280;37146;48.210;16.234;2023-07-08T12:17:48;99115.41;;;29.97;32.30
51099;BME280;37146;48.210;16.234;2023-07-08T12:20:23;99115.53;;;29.10;31.44
51099;BME280;37146;48.210;16.234;2023-07-08T12:22:50;99113.41;;;28.91;32.91
51099;BME280;37146;48.210;16.234;2023-07-08T12:25:17;99096.28;;;29.67;33.29
51099;BME280;37146;48.210;16.234;2023-07-08T12:27:43;99101.75;;;29.32;32.69
51099;BME280;37146;48.210;16.234;2023-07-08T12:30:09;99099.41;;;28.85;32.78
51099;BME280;37146;48.210;16.234;2023-07-08T12:32:36;99098.88;;;29.19;33.07
51099;BME280;37146;48.210;16.234;2023-07-08T12:35:01;99110.00;;;29.32;31.73
51099;BME280;37146;48.210;16.234;2023-07-08T12:37:29;99100.91;;;29.60;32.53
51099;BME280;37146;48.210;16.234;2023-07-08T12:39:56;99103.06;;;29.65;34.18
51099;BME280;37146;48.210;16.234;2023-07-08T12:42:24;99091.03;;;29.72;33.12
51099;BME280;37146;48.210;16.234;2023-07-08T12:44:49;99085.75;;;29.49;32.87
51099;BME280;37146;48.210;16.234;2023-07-08T12:47:19;99082.44;;;29.32;32.57
51099;BME280;37146;48.210;16.234;2023-07-08T12:49:45;99077.53;;;29.56;33.25
51099;BME280;37146;48.210;16.234;2023-07-08T12:52:23;99085.50;;;29.72;33.17
51099;BME280;37146;48.210;16.234;2023-07-08T12:54:49;99086.13;;;29.18;32.33
51099;BME280;37146;48.210;16.234;2023-07-08T12:57:15;99074.25;;;29.39;32.39
51099;BME280;37146;48.210;16.234;2023-07-08T12:59:40;99075.44;;;29.58;33.53
51099;BME280;37146;48.210;16.234;2023-07-08T13:02:16;99081.50;;;29.46;34.77
51099;BME280;37146;48.210;16.234;2023-07-08T13:04:43;99083.13;;;29.34;33.30
51099;BME280;37146;48.210;16.234;2023-07-08T13:07:13;99074.59;;;29.29;33.12
51099;BME280;37146;48.210;16.234;2023-07-08T13:09:47;99068.97;;;29.15;32.66
51099;BME280;37146;48.210;16.234;2023-07-08T13:12:15;99065.84;;;29.47;33.06
51099;BME280;37146;48.210;16.234;2023-07-08T13:14:41;99069.44;;;28.97;32.96
51099;BME280;37146;48.210;16.234;2023-07-08T13:17:10;99074.28;;;28.95;33.31
51099;BME280;37146;48.210;16.234;2023-07-08T13:19:35;99083.13;;;28.91;33.54
51099;BME280;37146;48.210;16.234;2023-07-08T13:22:01;99072.69;;;29.08;33.48
51099;BME280;37146;48.210;16.234;2023-07-08T13:24:29;99071.56;;;28.59;33.63
51099;BME280;37146;48.210;16.234;2023-07-08T13:26:55;99065.13;;;28.51;32.80
51099;BME280;37146;48.210;16.234;2023-07-08T13:29:20;99062.22;;;28.38;33.61
51099;BME280;37146;48.210;16.234;2023-07-08T13:31:48;99050.50;;;28.66;33.79
51099;BME280;37146;48.210;16.234;2023-07-08T13:34:17;99069.50;;;28.82;34.22
51099;BME280;37146;48.210;16.234;2023-07-08T13:36:43;99065.00;;;28.60;34.33
51099;BME280;37146;48.210;16.234;2023-07-08T13:39:12;99076.38;;;29.15;34.62
51099;BME280;37146;48.210;16.234;2023-07-08T13:41:41;99062.97;;;28.47;34.33